Ringsted, Iowa
Current Conditions -  °F | °C
As of 1:52 AM on Sunday 23 Nov 2014 (Local Time) from KEST Reporting Station
Haze Haze  
Wind Chill: 10°   Ceiling: 900
Heat Index: 10°   Visibility: 6mi
Dew Point:   Wind: 16mph
Humidity: 96%   Direction: 190°S
Pressure: 29.48"   Gusts: NA
Location:  43.29°N, 94.51°W
Report Text: KEST 230752Z AUTO 19014KT 6SM BR OVC009 10/09 A2948 RMK AO2 CIG 007V011 SLP988 T01000094
Loading
Personal Weather Stations






























Interactive Weather Map New forecast layout! Learn more

10-Day Weather Forecast

Advertisements
Track Severe Weather on mobile